Terminal Aerodrome Forecast
Issued by NWS Buffalo, NY

Home | Current Version | Previous Version | Text Only | Print | Product List | Glossary On
Versions: 1 2 3 4 5 6 7 8 9 10 11 12 13 14 15 16 17 18 19 20 21 22 23 24 25 26
000
FTUS41 KBUF 220500
TAFBUF
TAF
KBUF 220534Z 2206/2306 19004KT P6SM SCT250
     FM220800 VRB03KT 3SM BR SCT080
      TEMPO 2209/2212 2SM BR SCT012
     FM221200 VRB03KT P6SM BKN035
     FM221800 VRB03KT P6SM SCT250
     FM222300 04006KT P6SM SCT250
     FM230300 08004KT P6SM SCT250=

USA.gov is the U.S. government's official web portal to all federal, state and local government web resources and services.